Zenken Maru — JG5556 — position and weather

sailwx.info

Track history (hours):
 
Tides and Currents Weather Stations Pressure Air Temp Water Temp Dewpoint Dewpoint Depression Visibility Wind Speed Wind Dir Waves Ship Positions

Zenken Maru

Last reported at 2016-Sep-30 02:31 UTC. Time now 2016-Sep-30 03:18 UTC.
Position N 35°23' E 139°39'.

Length 98 m; draft 7.2 m.

Type: Cargo ship. MMSI: 431100955.

Date/timePositionNaut miles runAvg speedWind from/ knotsBaromVisibWave heightAir tempDewpointWater temp
2016-Sep-30 02:31N 35°23' E 139°39'0 0.0
2016-Sep-29 23:31N 35°23' E 139°39'3 1.3
2016-Sep-29 21:33N 35°21' E 139°41'0 0.0
2016-Sep-29 20:33N 35°21' E 139°41'0 0.0
2016-Sep-29 19:33N 35°21' E 139°41'0 0.0
2016-Sep-29 16:33N 35°21' E 139°41'0 0.0
2016-Sep-29 15:33N 35°21' E 139°41'0 0.0
2016-Sep-29 14:33N 35°21' E 139°41'0 0.0
2016-Sep-29 13:33N 35°21' E 139°41'0 0.0
2016-Sep-29 08:30N 35°21' E 139°41'0 0.1
2016-Sep-29 07:33N 35°21' E 139°41'0 0.0
2016-Sep-29 00:33N 35°21' E 139°41'0 0.0
2016-Sep-28 21:33N 35°21' E 139°41'0 0.0
2016-Sep-28 19:33N 35°21' E 139°41'0 0.0
2016-Sep-28 16:33N 35°21' E 139°41'0 0.0
2016-Sep-28 15:33N 35°21' E 139°41'0 0.0
2016-Sep-28 12:33N 35°21' E 139°41'0 0.0
2016-Sep-28 08:33N 35°21' E 139°41'3 0.5
2016-Sep-28 03:31N 35°23' E 139°39'0 0.0
2016-Sep-28 02:31N 35°23' E 139°39'0 0.0
2016-Sep-28 01:31N 35°23' E 139°39'0 0.0
2016-Sep-27 23:31N 35°23' E 139°39'24 6.0
2016-Sep-27 19:32N 34°60' E 139°43'46 8.6
2016-Sep-27 14:11N 34°18' E 140°07'69 1.9
2016-Sep-26 02:33N 35°23' E 139°39'0 0.0
2016-Sep-26 01:33N 35°23' E 139°39'0 0.0
2016-Sep-26 00:33N 35°23' E 139°39'3 0.9
2016-Sep-25 21:33N 35°21' E 139°41'0 0.0
2016-Sep-25 17:29N 35°21' E 139°41'0 0.1
2016-Sep-25 16:32N 35°21' E 139°41'0 0.0
2016-Sep-25 15:32N 35°21' E 139°41'0 0.0
2016-Sep-25 14:32N 35°21' E 139°41'0 0.0
2016-Sep-25 12:32N 35°21' E 139°41'0 0.0
2016-Sep-25 11:32N 35°21' E 139°41'0 0.0
2016-Sep-25 10:32N 35°21' E 139°41'0 0.0
2016-Sep-25 09:32N 35°21' E 139°41'0 0.0
2016-Sep-25 07:32N 35°21' E 139°41'0 0.0
2016-Sep-25 04:32N 35°21' E 139°41'0 0.0
2016-Sep-25 00:32N 35°21' E 139°41'0 0.0
2016-Sep-24 22:32N 35°21' E 139°41'0 0.0
2016-Sep-24 21:32N 35°21' E 139°41'0 0.0
2016-Sep-24 19:32N 35°21' E 139°41'0 0.0
2016-Sep-24 18:32N 35°21' E 139°41'0 0.0
2016-Sep-24 17:32N 35°21' E 139°41'0 0.0
2016-Sep-24 16:32N 35°21' E 139°41'0 0.0
2016-Sep-24 14:32N 35°21' E 139°41'0 0.0
2016-Sep-24 12:32N 35°21' E 139°41'0 0.0
2016-Sep-24 10:32N 35°21' E 139°41'0 0.1
2016-Sep-24 09:32N 35°21' E 139°41'0 0.0
2016-Sep-24 03:32N 35°21' E 139°41'0 0.0
2016-Sep-24 02:32N 35°21' E 139°41'0 0.0
2016-Sep-24 01:32N 35°21' E 139°41'0 0.1
2016-Sep-24 00:32N 35°21' E 139°41'3 0.5
2016-Sep-23 19:33N 35°23' E 139°39'0 0.0
2016-Sep-23 17:33N 35°23' E 139°39'0 0.0
2016-Sep-23 16:33N 35°23' E 139°39'0 0.0
2016-Sep-23 15:33N 35°23' E 139°39'0 0.0
2016-Sep-23 13:33N 35°23' E 139°39'0 0.0
2016-Sep-23 09:33N 35°23' E 139°39'0 0.0
2016-Sep-23 06:33N 35°23' E 139°39'0 0.0
2016-Sep-23 04:33N 35°23' E 139°39'0 0.0
2016-Sep-23 03:33N 35°23' E 139°39'0 0.0
2016-Sep-23 02:33N 35°23' E 139°39'0 0.0
2016-Sep-23 01:33N 35°23' E 139°39'0 0.0
2016-Sep-23 00:33N 35°23' E 139°39'0 0.0
2016-Sep-22 23:33N 35°23' E 139°39'15 5.1
2016-Sep-22 20:33N 35°09' E 139°46'8 0.2
2016-Sep-21 05:33N 35°17' E 139°45'5 2.6
2016-Sep-21 03:31N 35°21' E 139°41'0 0.0
2016-Sep-21 02:31N 35°21' E 139°41'0 0.0
2016-Sep-20 17:33N 35°21' E 139°41'0 0.0
2016-Sep-20 14:33N 35°21' E 139°41'0 0.0
2016-Sep-20 13:33N 35°21' E 139°41'0 0.0
2016-Sep-20 10:33N 35°21' E 139°41'0 0.0
2016-Sep-20 08:33N 35°21' E 139°41'0 0.0
2016-Sep-20 07:33N 35°21' E 139°41'0 0.0
2016-Sep-20 06:33N 35°21' E 139°41'3 0.8
2016-Sep-20 02:33N 35°23' E 139°39'  
Track history (hours):
 
Tides and Currents Weather Stations Pressure Air Temp Water Temp Dewpoint Dewpoint Depression Visibility Wind Speed Wind Dir Waves Ship Positions

Zenken Maru

Last reported at 2016-Sep-30 02:31 UTC. Time now 2016-Sep-30 03:18 UTC.
Position N 35°23' E 139°39'.

Length 98 m; draft 7.2 m.

Type: Cargo ship. MMSI: 431100955.

Date/timePositionNaut miles runAvg speedWind from/ knotsBaromVisibWave heightAir tempDewpointWater temp
2016-Sep-30 02:31N 35°23' E 139°39'0 0.0
2016-Sep-29 23:31N 35°23' E 139°39'3 1.3
2016-Sep-29 21:33N 35°21' E 139°41'0 0.0
2016-Sep-29 20:33N 35°21' E 139°41'0 0.0
2016-Sep-29 19:33N 35°21' E 139°41'0 0.0
2016-Sep-29 16:33N 35°21' E 139°41'0 0.0
2016-Sep-29 15:33N 35°21' E 139°41'0 0.0
2016-Sep-29 14:33N 35°21' E 139°41'0 0.0
2016-Sep-29 13:33N 35°21' E 139°41'0 0.0
2016-Sep-29 08:30N 35°21' E 139°41'0 0.1
2016-Sep-29 07:33N 35°21' E 139°41'0 0.0
2016-Sep-29 00:33N 35°21' E 139°41'0 0.0
2016-Sep-28 21:33N 35°21' E 139°41'0 0.0
2016-Sep-28 19:33N 35°21' E 139°41'0 0.0
2016-Sep-28 16:33N 35°21' E 139°41'0 0.0
2016-Sep-28 15:33N 35°21' E 139°41'0 0.0
2016-Sep-28 12:33N 35°21' E 139°41'0 0.0
2016-Sep-28 08:33N 35°21' E 139°41'3 0.5
2016-Sep-28 03:31N 35°23' E 139°39'0 0.0
2016-Sep-28 02:31N 35°23' E 139°39'0 0.0
2016-Sep-28 01:31N 35°23' E 139°39'0 0.0
2016-Sep-27 23:31N 35°23' E 139°39'24 6.0
2016-Sep-27 19:32N 34°60' E 139°43'46 8.6
2016-Sep-27 14:11N 34°18' E 140°07'69 1.9
2016-Sep-26 02:33N 35°23' E 139°39'0 0.0
2016-Sep-26 01:33N 35°23' E 139°39'0 0.0
2016-Sep-26 00:33N 35°23' E 139°39'3 0.9
2016-Sep-25 21:33N 35°21' E 139°41'0 0.0
2016-Sep-25 17:29N 35°21' E 139°41'0 0.1
2016-Sep-25 16:32N 35°21' E 139°41'0 0.0
2016-Sep-25 15:32N 35°21' E 139°41'0 0.0
2016-Sep-25 14:32N 35°21' E 139°41'0 0.0
2016-Sep-25 12:32N 35°21' E 139°41'0 0.0
2016-Sep-25 11:32N 35°21' E 139°41'0 0.0
2016-Sep-25 10:32N 35°21' E 139°41'0 0.0
2016-Sep-25 09:32N 35°21' E 139°41'0 0.0
2016-Sep-25 07:32N 35°21' E 139°41'0 0.0
2016-Sep-25 04:32N 35°21' E 139°41'0 0.0
2016-Sep-25 00:32N 35°21' E 139°41'0 0.0
2016-Sep-24 22:32N 35°21' E 139°41'0 0.0
2016-Sep-24 21:32N 35°21' E 139°41'0 0.0
2016-Sep-24 19:32N 35°21' E 139°41'0 0.0
2016-Sep-24 18:32N 35°21' E 139°41'0 0.0
2016-Sep-24 17:32N 35°21' E 139°41'0 0.0
2016-Sep-24 16:32N 35°21' E 139°41'0 0.0
2016-Sep-24 14:32N 35°21' E 139°41'0 0.0
2016-Sep-24 12:32N 35°21' E 139°41'0 0.0
2016-Sep-24 10:32N 35°21' E 139°41'0 0.1
2016-Sep-24 09:32N 35°21' E 139°41'0 0.0
2016-Sep-24 03:32N 35°21' E 139°41'0 0.0
2016-Sep-24 02:32N 35°21' E 139°41'0 0.0
2016-Sep-24 01:32N 35°21' E 139°41'0 0.1
2016-Sep-24 00:32N 35°21' E 139°41'3 0.5
2016-Sep-23 19:33N 35°23' E 139°39'0 0.0
2016-Sep-23 17:33N 35°23' E 139°39'0 0.0
2016-Sep-23 16:33N 35°23' E 139°39'0 0.0
2016-Sep-23 15:33N 35°23' E 139°39'0 0.0
2016-Sep-23 13:33N 35°23' E 139°39'0 0.0
2016-Sep-23 09:33N 35°23' E 139°39'0 0.0
2016-Sep-23 06:33N 35°23' E 139°39'0 0.0
2016-Sep-23 04:33N 35°23' E 139°39'0 0.0
2016-Sep-23 03:33N 35°23' E 139°39'0 0.0
2016-Sep-23 02:33N 35°23' E 139°39'0 0.0
2016-Sep-23 01:33N 35°23' E 139°39'0 0.0
2016-Sep-23 00:33N 35°23' E 139°39'0 0.0
2016-Sep-22 23:33N 35°23' E 139°39'15 5.1
2016-Sep-22 20:33N 35°09' E 139°46'8 0.2
2016-Sep-21 05:33N 35°17' E 139°45'5 2.6
2016-Sep-21 03:31N 35°21' E 139°41'0 0.0
2016-Sep-21 02:31N 35°21' E 139°41'0 0.0
2016-Sep-20 17:33N 35°21' E 139°41'0 0.0
2016-Sep-20 14:33N 35°21' E 139°41'0 0.0
2016-Sep-20 13:33N 35°21' E 139°41'0 0.0
2016-Sep-20 10:33N 35°21' E 139°41'0 0.0
2016-Sep-20 08:33N 35°21' E 139°41'0 0.0
2016-Sep-20 07:33N 35°21' E 139°41'0 0.0
2016-Sep-20 06:33N 35°21' E 139°41'3 0.8
2016-Sep-20 02:33N 35°23' E 139°39'  

Dump ship's entire track history